Jensen, Utah
Current Conditions -  °F | °C
As of 5:53 AM on Wednesday 22 Oct 2014 (Local Time) from KVEL Reporting Station
Clear Clear  
Wind Chill: 37°   Ceiling: Unl
Heat Index: 41°   Visibility: 10mi
Dew Point: 37°   Wind: 6mph
Humidity: 86%   Direction: 290°WNW
Pressure: 30.13"   Gusts: NA
Location:  40.37°N, 109.34°W
Report Text: KVEL 221153Z AUTO 29005KT 10SM CLR 05/03 A3013 RMK AO2 SLP181 70004 T00500028 10100 20044 53012
Loading
Personal Weather Stations






























Interactive Weather Map
Tropical Storm Tracking
New forecast layout! Learn more

10-Day Weather Forecast

Advertisements
Track Severe Weather on mobile